createdAt,value
2019-01-24T00:01:04.015Z,74.30
2019-01-24T00:03:33.095Z,75.56
2019-01-24T00:06:02.188Z,75.14
2019-01-24T00:08:31.266Z,75.08
2019-01-24T00:11:00.345Z,75.12
2019-01-24T00:13:29.436Z,75.46
2019-01-24T00:18:45.096Z,76.79
2019-01-24T00:21:23.299Z,76.75
2019-01-24T00:24:03.378Z,76.92
2019-01-24T00:26:32.491Z,77.42
2019-01-24T00:29:01.585Z,77.54
2019-01-24T00:31:31.588Z,76.76
2019-01-24T00:34:06.324Z,76.04
2019-01-24T00:36:50.010Z,76.50
2019-01-24T00:39:19.186Z,76.61
2019-01-24T00:41:51.456Z,76.17
2019-01-24T00:44:20.795Z,75.89
2019-01-24T00:51:07.931Z,75.54
2019-01-24T00:53:38.894Z,75.26
2019-01-24T00:56:11.518Z,76.39
2019-01-24T01:01:16.315Z,76.29
2019-01-24T01:04:16.496Z,75.74
2019-01-24T01:09:23.298Z,76.21
2019-01-24T01:11:52.375Z,76.59
2019-01-24T01:14:21.543Z,76.40
2019-01-24T01:16:50.619Z,76.28
2019-01-24T01:19:19.690Z,75.97
2019-01-24T01:21:48.763Z,76.40
2019-01-24T01:24:17.825Z,76.29
2019-01-24T01:27:15.300Z,76.50
2019-01-24T01:29:44.459Z,76.41
2019-01-24T01:32:16.767Z,76.43
2019-01-24T01:35:15.465Z,76.36
2019-01-24T01:40:47.933Z,76.68
2019-01-24T01:43:17.018Z,76.16
2019-01-24T01:45:58.901Z,75.90
2019-01-24T01:48:28.060Z,76.76
2019-01-24T01:51:16.356Z,77.18
2019-01-24T01:56:30.043Z,76.83
2019-01-24T01:59:13.142Z,77.66
2019-01-24T02:02:06.383Z,78.87
2019-01-24T02:04:35.465Z,78.52
2019-01-24T02:09:48.185Z,77.35
2019-01-24T02:12:17.289Z,77.91
2019-01-24T02:14:46.347Z,78.10
2019-01-24T02:17:16.320Z,76.95
2019-01-24T02:20:00.588Z,77.83
2019-01-24T02:22:29.644Z,77.64
2019-01-24T02:24:58.821Z,77.30
2019-01-24T02:27:28.384Z,77.96
2019-01-24T02:30:18.753Z,79.17
2019-01-24T02:32:47.812Z,79.79
2019-01-24T02:35:16.866Z,78.95
2019-01-24T02:38:08.595Z,78.66
2019-01-24T02:40:38.597Z,79.64
2019-01-24T02:43:07.689Z,80.63
2019-01-24T02:45:38.720Z,79.65
2019-01-24T02:48:12.238Z,78.94
2019-01-24T02:50:41.421Z,79.36
2019-01-24T02:55:46.241Z,79.11
2019-01-24T02:58:20.603Z,79.18
2019-01-24T03:00:49.691Z,79.38
2019-01-24T03:03:19.763Z,79.66
2019-01-24T03:05:48.906Z,80.26
2019-01-24T03:08:18.956Z,81.45
2019-01-24T03:14:10.463Z,80.08
2019-01-24T03:16:39.543Z,79.75
2019-01-24T03:19:08.650Z,79.17
2019-01-24T03:21:37.723Z,79.00
2019-01-24T03:24:06.811Z,78.54
2019-01-24T03:31:49.289Z,79.04
2019-01-24T03:34:18.373Z,78.95
2019-01-24T03:36:47.452Z,79.28
2019-01-24T03:42:02.898Z,78.78
2019-01-24T03:44:39.123Z,78.87
2019-01-24T03:47:08.195Z,79.42
2019-01-24T03:49:49.927Z,79.22
2019-01-24T03:52:19.042Z,79.33
2019-01-24T03:54:48.119Z,79.35
2019-01-24T03:57:17.200Z,80.46
2019-01-24T04:05:12.268Z,79.94
2019-01-24T04:07:52.622Z,79.62
2019-01-24T04:10:21.698Z,80.26
2019-01-24T04:12:52.746Z,80.37
2019-01-24T04:15:22.755Z,80.19
2019-01-24T04:20:27.565Z,79.22
2019-01-24T04:22:58.551Z,79.00
2019-01-24T04:25:27.611Z,80.22
2019-01-24T04:27:59.710Z,80.19
2019-01-24T04:30:32.340Z,80.67
2019-01-24T04:33:03.342Z,80.65
2019-01-24T04:38:08.745Z,79.86
2019-01-24T04:40:37.819Z,79.13
2019-01-24T04:43:06.936Z,78.39
2019-01-24T04:45:49.739Z,78.97
2019-01-24T04:48:18.808Z,79.21
2019-01-24T04:53:26.537Z,79.68
2019-01-24T04:55:55.649Z,79.84
2019-01-24T04:58:25.625Z,79.74
2019-01-24T05:00:54.689Z,79.75
2019-01-24T05:03:34.496Z,80.29
2019-01-24T05:06:03.576Z,79.82
2019-01-24T05:08:33.614Z,79.54
2019-01-24T05:11:02.678Z,79.68
2019-01-24T05:13:35.722Z,80.01
2019-01-24T05:16:05.722Z,79.49
2019-01-24T05:21:12.463Z,80.91
2019-01-24T05:23:56.863Z,80.03
2019-01-24T05:26:39.151Z,79.46
2019-01-24T05:29:08.231Z,79.76
2019-01-24T05:31:37.296Z,80.20
2019-01-24T05:34:07.280Z,80.81
2019-01-24T05:39:14.058Z,81.89
2019-01-24T05:44:20.002Z,81.70
2019-01-24T05:46:49.059Z,82.53
2019-01-24T05:49:18.161Z,82.25
2019-01-24T05:51:50.246Z,82.33
2019-01-24T05:54:21.712Z,82.10
2019-01-24T05:56:52.690Z,82.07
2019-01-24T05:59:21.743Z,81.25
2019-01-24T06:04:29.543Z,80.67
2019-01-24T06:06:58.633Z,80.67
2019-01-24T06:09:28.489Z,81.08
2019-01-24T06:12:01.009Z,81.25
2019-01-24T06:14:35.761Z,80.41
2019-01-24T06:17:04.812Z,80.49
2019-01-24T06:19:34.781Z,80.41
2019-01-24T06:22:04.690Z,79.88
2019-01-24T06:24:51.436Z,79.83
2019-01-24T06:27:20.880Z,79.68
2019-01-24T06:29:51.955Z,79.23
2019-01-24T06:32:21.103Z,79.43
2019-01-24T06:35:02.729Z,78.58
2019-01-24T06:37:31.789Z,78.65
2019-01-24T06:40:02.872Z,78.67
2019-01-24T06:42:35.130Z,79.62
2019-01-24T06:45:04.198Z,79.33
2019-01-24T06:47:35.219Z,79.70
2019-01-24T06:50:04.300Z,79.40
2019-01-24T06:52:33.401Z,78.60
2019-01-24T06:55:07.869Z,78.32
2019-01-24T06:57:36.932Z,79.11
2019-01-24T07:00:06.717Z,78.54
2019-01-24T07:02:35.771Z,78.40
2019-01-24T07:05:04.835Z,79.28
2019-01-24T07:07:33.928Z,79.87
2019-01-24T07:10:04.879Z,80.25
2019-01-24T07:12:34.057Z,80.15
2019-01-24T07:15:16.941Z,80.20
2019-01-24T07:20:25.153Z,82.34
2019-01-24T07:22:54.223Z,81.96
2019-01-24T07:25:25.213Z,81.44
2019-01-24T07:27:59.350Z,81.00
2019-01-24T07:34:39.167Z,79.56
2019-01-24T07:37:08.247Z,82.65
2019-01-24T07:42:21.556Z,83.61
2019-01-24T07:50:05.017Z,84.80
2019-01-24T07:55:13.335Z,84.40
2019-01-24T08:00:20.971Z,84.79
2019-01-24T08:02:50.032Z,84.51
2019-01-24T08:05:19.091Z,84.62
2019-01-24T08:07:56.118Z,83.44
2019-01-24T08:13:30.312Z,83.87
2019-01-24T08:16:01.272Z,83.84
2019-01-24T08:18:30.331Z,83.52
2019-01-24T08:20:59.434Z,83.98
2019-01-24T08:26:07.653Z,82.92
2019-01-24T08:28:39.950Z,81.66
2019-01-24T08:34:07.007Z,81.43
2019-01-24T08:36:36.072Z,81.88
2019-01-24T08:39:05.166Z,81.99
2019-01-24T08:41:34.276Z,81.70
2019-01-24T08:44:03.335Z,81.56
2019-01-24T08:46:32.392Z,77.78
2019-01-24T08:49:01.488Z,78.85
2019-01-24T08:51:30.568Z,78.48
2019-01-24T08:53:59.638Z,78.74
2019-01-24T08:56:31.832Z,79.44
2019-01-24T08:59:01.828Z,78.41
2019-01-24T09:01:32.802Z,77.52
2019-01-24T09:04:01.858Z,76.14
2019-01-24T09:06:30.966Z,75.21
2019-01-24T09:09:13.278Z,74.78
2019-01-24T09:16:59.742Z,65.30
2019-01-24T09:19:34.811Z,54.66
2019-01-24T09:22:03.833Z,53.19
2019-01-24T09:24:33.870Z,55.28
2019-01-24T09:27:02.910Z,53.47
2019-01-24T09:29:31.946Z,56.43
2019-01-24T09:32:01.163Z,53.54
2019-01-24T09:34:31.171Z,57.60
2019-01-24T09:37:01.498Z,48.76
2019-01-24T09:39:38.512Z,51.06
2019-01-24T09:42:11.307Z,51.84
2019-01-24T09:44:41.319Z,46.00
2019-01-24T09:54:57.056Z,49.76
2019-01-24T09:57:29.599Z,54.46
2019-01-24T09:59:58.724Z,50.81
2019-01-24T10:02:30.136Z,51.86
2019-01-24T10:04:59.201Z,53.22
2019-01-24T10:07:28.262Z,57.99
2019-01-24T10:09:57.444Z,61.87
2019-01-24T10:12:26.511Z,62.98
2019-01-24T10:14:56.479Z,62.07
2019-01-24T10:17:27.573Z,60.33
2019-01-24T10:19:56.616Z,60.77
2019-01-24T10:22:29.614Z,60.55
2019-01-24T10:24:58.684Z,60.90
2019-01-24T10:27:28.050Z,63.93
2019-01-24T10:29:57.207Z,63.00
2019-01-24T10:32:26.243Z,62.50
2019-01-24T10:34:55.313Z,63.81
2019-01-24T10:37:32.932Z,61.12
2019-01-24T10:40:02.001Z,61.77
2019-01-24T10:42:31.080Z,56.15
2019-01-24T10:45:07.531Z,50.56
2019-01-24T10:50:12.259Z,40.35
2019-01-24T10:52:41.314Z,41.72
2019-01-24T10:55:20.152Z,39.66
2019-01-24T10:57:49.219Z,31.92
2019-01-24T11:00:34.093Z,32.97
2019-01-24T11:03:03.155Z,38.08
2019-01-24T11:05:44.028Z,35.55
2019-01-24T11:10:49.752Z,33.53
2019-01-24T11:13:21.027Z,32.08
2019-01-24T11:18:36.918Z,29.01
2019-01-24T11:21:05.991Z,34.26
2019-01-24T11:23:35.071Z,38.19
2019-01-24T11:26:04.128Z,39.62
2019-01-24T11:31:08.976Z,40.38
2019-01-24T11:33:48.194Z,39.72
2019-01-24T11:36:17.256Z,30.04
2019-01-24T11:38:46.367Z,31.83
2019-01-24T11:41:15.399Z,27.47
2019-01-24T11:46:20.753Z,30.66
2019-01-24T11:48:51.780Z,35.31
2019-01-24T11:51:21.836Z,34.93
2019-01-24T11:53:53.191Z,39.08
2019-01-24T11:56:24.019Z,35.44
2019-01-24T11:58:53.987Z,39.51
2019-01-24T12:01:23.047Z,34.52
2019-01-24T12:03:52.106Z,32.98
2019-01-24T12:06:25.203Z,30.06
2019-01-24T12:08:54.324Z,31.96
2019-01-24T12:11:23.404Z,34.75
2019-01-24T12:13:52.460Z,31.39
2019-01-24T12:16:21.689Z,34.75
2019-01-24T12:18:50.799Z,35.69
2019-01-24T12:21:19.799Z,32.36
2019-01-24T12:23:49.049Z,33.50
2019-01-24T12:26:18.094Z,34.35
2019-01-24T12:28:48.139Z,36.34
2019-01-24T12:31:18.155Z,41.25
2019-01-24T12:36:31.384Z,43.69
2019-01-24T12:39:00.452Z,42.62
2019-01-24T12:44:08.691Z,43.20
2019-01-24T12:46:37.753Z,41.43
2019-01-24T12:49:06.814Z,44.15
2019-01-24T12:51:39.192Z,47.85
2019-01-24T12:54:09.303Z,47.10
2019-01-24T12:56:38.355Z,47.14
2019-01-24T12:59:10.744Z,46.72
2019-01-24T13:01:43.779Z,46.93
2019-01-24T13:04:17.748Z,47.14
2019-01-24T13:06:46.787Z,49.33
2019-01-24T13:09:20.293Z,47.42
2019-01-24T13:11:49.362Z,48.26
2019-01-24T13:14:30.769Z,48.79
2019-01-24T13:16:59.904Z,52.57
2019-01-24T13:22:04.239Z,55.99
2019-01-24T13:27:09.368Z,50.48
2019-01-24T13:29:46.335Z,52.07
2019-01-24T13:32:15.395Z,54.39
2019-01-24T13:34:48.050Z,51.64
2019-01-24T13:37:17.095Z,54.38
2019-01-24T13:39:46.208Z,51.78
2019-01-24T13:42:15.267Z,50.22
2019-01-24T13:44:44.321Z,51.10
2019-01-24T13:47:14.330Z,53.95
2019-01-24T13:49:43.457Z,53.44
2019-01-24T13:52:13.461Z,52.08
2019-01-24T13:54:43.459Z,52.61
2019-01-24T13:59:48.744Z,52.18
2019-01-24T14:02:19.844Z,51.64
2019-01-24T14:04:48.907Z,55.88
2019-01-24T14:07:17.996Z,55.52
2019-01-24T14:09:49.073Z,55.54
2019-01-24T14:12:19.061Z,53.33
2019-01-24T14:14:48.135Z,52.64
2019-01-24T14:17:17.181Z,53.11
2019-01-24T14:19:47.168Z,56.04
2019-01-24T14:22:16.247Z,54.27
2019-01-24T14:24:45.289Z,55.11
2019-01-24T14:27:15.339Z,53.79
2019-01-24T14:29:43.533Z,54.43
2019-01-24T14:34:48.335Z,55.85
2019-01-24T14:37:17.408Z,53.98
2019-01-24T14:42:29.651Z,52.63
2019-01-24T14:45:06.103Z,51.79
2019-01-24T14:47:48.140Z,53.57
2019-01-24T14:52:55.865Z,52.98
2019-01-24T14:55:30.446Z,53.83
2019-01-24T14:57:59.791Z,56.33
2019-01-24T15:00:38.421Z,56.74
2019-01-24T15:03:07.486Z,59.75
2019-01-24T15:05:43.472Z,60.02
2019-01-24T15:08:12.527Z,59.55
2019-01-24T15:10:41.580Z,60.46
2019-01-24T15:13:10.655Z,62.35
2019-01-24T15:18:15.458Z,62.03
2019-01-24T15:20:44.499Z,65.08
2019-01-24T15:23:14.498Z,66.36
2019-01-24T15:25:44.560Z,64.31
2019-01-24T15:28:17.042Z,64.42
2019-01-24T15:30:50.902Z,65.86
2019-01-24T15:33:23.910Z,68.00
2019-01-24T15:35:53.936Z,69.06
2019-01-24T15:38:24.924Z,70.00
2019-01-24T15:40:53.999Z,70.16
2019-01-24T15:43:23.062Z,73.62
2019-01-24T15:45:53.258Z,74.07
2019-01-24T15:48:29.475Z,75.36
2019-01-24T15:50:59.454Z,76.04
2019-01-24T15:53:32.448Z,76.79
2019-01-24T15:56:01.645Z,77.17
2019-01-24T15:58:30.674Z,77.80
2019-01-24T16:00:59.723Z,79.02
2019-01-24T16:03:29.793Z,78.81
2019-01-24T16:08:38.356Z,79.41
2019-01-24T16:11:14.633Z,80.69
2019-01-24T16:16:24.171Z,81.28
2019-01-24T16:18:53.240Z,80.83
2019-01-24T16:21:23.222Z,81.13
2019-01-24T16:23:52.306Z,81.85
2019-01-24T16:26:21.360Z,81.55
2019-01-24T16:28:58.355Z,80.18
2019-01-24T16:31:27.412Z,80.70
2019-01-24T16:33:57.439Z,81.09
2019-01-24T16:36:26.487Z,81.43
2019-01-24T16:41:38.859Z,83.26
2019-01-24T16:44:08.818Z,82.01
2019-01-24T16:46:45.155Z,84.32
2019-01-24T16:49:14.241Z,84.72
2019-01-24T16:54:20.968Z,83.44
2019-01-24T16:56:50.966Z,82.11
2019-01-24T16:59:20.027Z,82.56
2019-01-24T17:01:49.108Z,84.31
2019-01-24T17:04:18.160Z,83.43
2019-01-24T17:06:47.225Z,82.63
2019-01-24T17:09:16.304Z,82.90
2019-01-24T17:11:56.699Z,84.37
2019-01-24T17:14:26.755Z,83.82
2019-01-24T17:17:03.012Z,82.83
2019-01-24T17:24:46.724Z,82.57
2019-01-24T17:27:15.773Z,82.39
2019-01-24T17:29:46.761Z,82.20
2019-01-24T17:32:15.839Z,82.84
2019-01-24T17:35:01.014Z,83.07
2019-01-24T17:37:30.067Z,83.24
2019-01-24T17:39:59.132Z,83.92
2019-01-24T17:42:28.183Z,83.60
2019-01-24T17:45:04.847Z,83.82
2019-01-24T17:47:34.883Z,84.33
2019-01-24T17:50:03.990Z,83.63
2019-01-24T17:52:33.068Z,83.90
2019-01-24T17:55:02.190Z,83.29
2019-01-24T17:57:31.245Z,81.12
2019-01-24T18:00:00.296Z,80.68
2019-01-24T18:02:29.363Z,81.97
2019-01-24T18:05:02.572Z,81.74
2019-01-24T18:07:31.633Z,80.73
2019-01-24T18:15:25.902Z,80.18
2019-01-24T18:17:56.114Z,80.43
2019-01-24T18:20:25.200Z,79.81
2019-01-24T18:22:59.545Z,81.21
2019-01-24T18:25:28.607Z,82.25
2019-01-24T18:27:58.628Z,82.33
2019-01-24T18:30:27.951Z,81.89
2019-01-24T18:32:57.968Z,82.48
2019-01-24T18:35:50.070Z,83.47
2019-01-24T18:38:19.156Z,82.44
2019-01-24T18:40:51.767Z,82.32
2019-01-24T18:43:20.866Z,82.73
2019-01-24T18:46:00.300Z,83.31
2019-01-24T18:51:07.039Z,82.68
2019-01-24T18:56:18.766Z,84.15
2019-01-24T19:04:08.107Z,83.59
2019-01-24T19:06:38.149Z,84.17
2019-01-24T19:09:07.259Z,85.17
2019-01-24T19:11:38.279Z,84.70
2019-01-24T19:14:07.334Z,84.85
2019-01-24T19:16:48.815Z,83.75
2019-01-24T19:19:17.934Z,84.68
2019-01-24T19:24:35.604Z,84.15
2019-01-24T19:27:06.583Z,83.78
2019-01-24T19:29:37.564Z,83.95
2019-01-24T19:32:06.624Z,84.24
2019-01-24T19:37:11.376Z,82.61
2019-01-24T19:39:40.438Z,82.15
2019-01-24T19:42:09.624Z,83.39
2019-01-24T19:44:54.317Z,83.23
2019-01-24T19:47:23.386Z,83.24
2019-01-24T19:55:14.267Z,81.27
2019-01-24T19:57:43.329Z,81.60
2019-01-24T20:00:14.966Z,82.20
2019-01-24T20:02:51.214Z,82.73
2019-01-24T20:05:20.308Z,82.50
2019-01-24T20:07:51.286Z,82.99
2019-01-24T20:10:21.234Z,82.75
2019-01-24T20:12:50.335Z,83.47
2019-01-24T20:15:19.417Z,84.21
2019-01-24T20:17:49.655Z,84.39
2019-01-24T20:20:18.674Z,85.63
2019-01-24T20:22:47.831Z,85.29
2019-01-24T20:25:18.416Z,86.24
2019-01-24T20:27:52.456Z,87.47
2019-01-24T20:30:22.344Z,87.61
2019-01-24T20:35:47.836Z,85.77
2019-01-24T20:40:57.303Z,83.56
2019-01-24T20:43:35.317Z,83.54
2019-01-24T20:48:39.227Z,84.52
2019-01-24T20:51:12.417Z,84.62
2019-01-24T20:53:41.771Z,85.57
2019-01-24T20:56:21.545Z,86.39
2019-01-24T20:58:54.263Z,86.02
2019-01-24T21:01:24.351Z,86.46
2019-01-24T21:06:35.805Z,85.71
2019-01-24T21:09:22.035Z,84.18
2019-01-24T21:12:02.211Z,85.31
2019-01-24T21:14:36.766Z,84.58
2019-01-24T21:19:45.175Z,85.17
2019-01-24T21:24:53.561Z,84.18
2019-01-24T21:27:22.639Z,84.15
2019-01-24T21:29:51.712Z,83.57
2019-01-24T21:32:20.813Z,84.31
2019-01-24T21:34:49.967Z,84.70
2019-01-24T21:37:19.039Z,85.85
2019-01-24T21:39:48.175Z,86.66
2019-01-24T21:42:18.220Z,85.60
2019-01-24T21:44:47.269Z,86.40
2019-01-24T21:47:16.380Z,87.04
2019-01-24T21:49:45.514Z,85.74
2019-01-24T21:52:28.537Z,85.70
2019-01-24T21:55:19.440Z,85.54
2019-01-24T21:57:48.544Z,86.08
2019-01-24T22:00:19.382Z,86.11
2019-01-24T22:02:48.625Z,84.98
2019-01-24T22:05:28.672Z,86.81
2019-01-24T22:10:52.126Z,85.40
2019-01-24T22:13:42.314Z,86.22
2019-01-24T22:16:30.267Z,86.90
2019-01-24T22:21:34.690Z,86.30
2019-01-24T22:24:03.957Z,86.12
2019-01-24T22:26:33.956Z,86.38
2019-01-24T22:31:39.184Z,85.71
2019-01-24T22:34:27.066Z,85.42
2019-01-24T22:39:43.085Z,85.33
2019-01-24T22:42:22.027Z,86.72
2019-01-24T22:44:51.108Z,86.44
2019-01-24T22:49:59.587Z,86.32
2019-01-24T22:52:28.692Z,86.47
2019-01-24T22:58:40.820Z,87.00
2019-01-24T23:01:15.676Z,87.50
2019-01-24T23:03:44.743Z,87.46
2019-01-24T23:06:17.322Z,87.38
2019-01-24T23:08:46.399Z,86.08
2019-01-24T23:13:57.768Z,87.24
2019-01-24T23:16:26.924Z,85.83
2019-01-24T23:18:56.026Z,85.54
2019-01-24T23:21:26.192Z,85.84
2019-01-24T23:26:34.392Z,85.58
2019-01-24T23:31:46.032Z,86.98
2019-01-24T23:34:15.088Z,87.56
2019-01-24T23:36:44.154Z,86.91
2019-01-24T23:39:24.042Z,86.53
2019-01-24T23:44:34.891Z,85.39
2019-01-24T23:47:05.345Z,86.13
2019-01-24T23:49:34.427Z,86.81
2019-01-24T23:54:42.230Z,86.41
2019-01-24T23:57:11.287Z,87.47
2019-01-24T23:59:40.344Z,85.93
